sensor_id;sensor_type;location;lat;lon;timestamp;pressure;altitude;pressure_sealevel;temperature;humidity
12879;BME280;20617;49.476;10.986;2023-04-22T00:01:04;97699.59;;;14.15;100.00
12879;BME280;20617;49.476;10.986;2023-04-22T00:03:14;97692.28;;;14.20;100.00
12879;BME280;20617;49.476;10.986;2023-04-22T00:05:19;97699.19;;;14.21;100.00
12879;BME280;20617;49.476;10.986;2023-04-22T00:07:24;97695.81;;;14.19;100.00
12879;BME280;20617;49.476;10.986;2023-04-22T00:09:29;97689.56;;;14.21;100.00
12879;BME280;20617;49.476;10.986;2023-04-22T00:11:34;97690.38;;;14.22;100.00
12879;BME280;20617;49.476;10.986;2023-04-22T00:13:39;97689.56;;;14.21;100.00
12879;BME280;20617;49.476;10.986;2023-04-22T00:15:44;97685.91;;;14.24;100.00
12879;BME280;20617;49.476;10.986;2023-04-22T00:17:48;97686.53;;;14.27;100.00
12879;BME280;20617;49.476;10.986;2023-04-22T00:19:56;97687.38;;;14.28;100.00
12879;BME280;20617;49.476;10.986;2023-04-22T00:22:02;97687.38;;;14.28;100.00
12879;BME280;20617;49.476;10.986;2023-04-22T00:24:07;97690.31;;;14.23;100.00
12879;BME280;20617;49.476;10.986;2023-04-22T00:26:12;97684.44;;;14.20;100.00
12879;BME280;20617;49.476;10.986;2023-04-22T00:28:17;97695.13;;;14.17;100.00
12879;BME280;20617;49.476;10.986;2023-04-22T00:30:22;97691.75;;;14.15;100.00
12879;BME280;20617;49.476;10.986;2023-04-22T00:32:27;97687.25;;;14.17;100.00
12879;BME280;20617;49.476;10.986;2023-04-22T00:34:32;97683.69;;;14.18;100.00
12879;BME280;20617;49.476;10.986;2023-04-22T00:36:39;97690.59;;;14.19;100.00
12879;BME280;20617;49.476;10.986;2023-04-22T00:38:48;97685.47;;;14.17;100.00
12879;BME280;20617;49.476;10.986;2023-04-22T00:40:53;97686.31;;;14.18;100.00
12879;BME280;20617;49.476;10.986;2023-04-22T00:42:58;97687.25;;;14.17;100.00
12879;BME280;20617;49.476;10.986;2023-04-22T00:45:04;97686.31;;;14.18;100.00
12879;BME280;20617;49.476;10.986;2023-04-22T00:47:13;97687.25;;;14.17;100.00
12879;BME280;20617;49.476;10.986;2023-04-22T00:49:19;97695.13;;;14.17;100.00
12879;BME280;20617;49.476;10.986;2023-04-22T00:51:24;97694.78;;;14.09;100.00
12879;BME280;20617;49.476;10.986;2023-04-22T00:53:32;97688.03;;;14.04;100.00
12879;BME280;20617;49.476;10.986;2023-04-22T00:55:37;97692.44;;;14.04;100.00
12879;BME280;20617;49.476;10.986;2023-04-22T00:57:42;97688.34;;;14.00;100.00
12879;BME280;20617;49.476;10.986;2023-04-22T00:59:47;97693.59;;;14.00;100.00
12879;BME280;20617;49.476;10.986;2023-04-22T01:01:52;97691.88;;;13.99;100.00
12879;BME280;20617;49.476;10.986;2023-04-22T01:03:57;97689.94;;;14.02;100.00
12879;BME280;20617;49.476;10.986;2023-04-22T01:06:02;97697.13;;;13.99;100.00
12879;BME280;20617;49.476;10.986;2023-04-22T01:08:07;97694.50;;;13.99;100.00
12879;BME280;20617;49.476;10.986;2023-04-22T01:10:15;97692.63;;;14.01;100.00
12879;BME280;20617;49.476;10.986;2023-04-22T01:12:21;97691.19;;;13.97;100.00
12879;BME280;20617;49.476;10.986;2023-04-22T01:14:26;97687.72;;;13.96;100.00
12879;BME280;20617;49.476;10.986;2023-04-22T01:16:31;97684.34;;;13.94;100.00
12879;BME280;20617;49.476;10.986;2023-04-22T01:18:39;97684.34;;;13.94;100.00
12879;BME280;20617;49.476;10.986;2023-04-22T01:20:44;97689.47;;;13.96;100.00
12879;BME280;20617;49.476;10.986;2023-04-22T01:22:53;97685.09;;;13.96;100.00
12879;BME280;20617;49.476;10.986;2023-04-22T01:25:02;97685.94;;;13.97;100.00
12879;BME280;20617;49.476;10.986;2023-04-22T01:27:08;97683.22;;;13.98;100.00
12879;BME280;20617;49.476;10.986;2023-04-22T01:29:14;97690.22;;;13.98;100.00
12879;BME280;20617;49.476;10.986;2023-04-22T01:31:19;97691.88;;;13.99;100.00
12879;BME280;20617;49.476;10.986;2023-04-22T01:33:24;97691.69;;;14.02;100.00
12879;BME280;20617;49.476;10.986;2023-04-22T01:35:29;97685.00;;;13.98;100.00
12879;BME280;20617;49.476;10.986;2023-04-22T01:37:38;97686.66;;;13.99;100.00
12879;BME280;20617;49.476;10.986;2023-04-22T01:39:44;97678.28;;;13.94;100.00
12879;BME280;20617;49.476;10.986;2023-04-22T01:41:52;97687.81;;;13.95;100.00
12879;BME280;20617;49.476;10.986;2023-04-22T01:43:59;97686.13;;;13.94;100.00
12879;BME280;20617;49.476;10.986;2023-04-22T01:46:08;97674.84;;;13.93;100.00
12879;BME280;20617;49.476;10.986;2023-04-22T01:48:13;97687.81;;;13.95;100.00
12879;BME280;20617;49.476;10.986;2023-04-22T01:50:19;97687.06;;;13.93;100.00
12879;BME280;20617;49.476;10.986;2023-04-22T01:52:25;97686.97;;;13.94;100.00
12879;BME280;20617;49.476;10.986;2023-04-22T01:54:31;97693.16;;;13.93;100.00
12879;BME280;20617;49.476;10.986;2023-04-22T01:56:35;97691.97;;;13.85;100.00
12879;BME280;20617;49.476;10.986;2023-04-22T01:58:45;97697.69;;;13.77;100.00
12879;BME280;20617;49.476;10.986;2023-04-22T02:00:50;97693.56;;;13.73;100.00
12879;BME280;20617;49.476;10.986;2023-04-22T02:02:55;97694.81;;;13.67;100.00
12879;BME280;20617;49.476;10.986;2023-04-22T02:05:00;97699.38;;;13.64;100.00
12879;BME280;20617;49.476;10.986;2023-04-22T02:07:05;97697.09;;;13.59;100.00
12879;BME280;20617;49.476;10.986;2023-04-22T02:09:11;97700.16;;;13.51;100.00
12879;BME280;20617;49.476;10.986;2023-04-22T02:11:17;97701.41;;;13.46;100.00
12879;BME280;20617;49.476;10.986;2023-04-22T02:13:22;97707.66;;;13.43;100.00
12879;BME280;20617;49.476;10.986;2023-04-22T02:15:29;97719.13;;;13.41;100.00
12879;BME280;20617;49.476;10.986;2023-04-22T02:17:34;97721.84;;;13.39;100.00
12879;BME280;20617;49.476;10.986;2023-04-22T02:19:40;97704.66;;;13.35;100.00
12879;BME280;20617;49.476;10.986;2023-04-22T02:21:45;97705.34;;;13.39;100.00
12879;BME280;20617;49.476;10.986;2023-04-22T02:23:50;97701.69;;;13.41;100.00
12879;BME280;20617;49.476;10.986;2023-04-22T02:25:55;97708.47;;;13.44;100.00
12879;BME280;20617;49.476;10.986;2023-04-22T02:27:59;97708.47;;;13.44;100.00
12879;BME280;20617;49.476;10.986;2023-04-22T02:30:07;97704.13;;;13.44;100.00
12879;BME280;20617;49.476;10.986;2023-04-22T02:32:14;97708.47;;;13.44;100.00
12879;BME280;20617;49.476;10.986;2023-04-22T02:34:20;97709.53;;;13.41;100.00
12879;BME280;20617;49.476;10.986;2023-04-22T02:36:25;97708.59;;;13.42;100.00
12879;BME280;20617;49.476;10.986;2023-04-22T02:38:33;97714.66;;;13.43;100.00
12879;BME280;20617;49.476;10.986;2023-04-22T02:40:44;97714.59;;;13.44;100.00
12879;BME280;20617;49.476;10.986;2023-04-22T02:42:50;97715.41;;;13.45;100.00
12879;BME280;20617;49.476;10.986;2023-04-22T02:44:56;97715.41;;;13.45;100.00
12879;BME280;20617;49.476;10.986;2023-04-22T02:47:01;97723.16;;;13.46;100.00
12879;BME280;20617;49.476;10.986;2023-04-22T02:49:10;97717.72;;;13.49;100.00
12879;BME280;20617;49.476;10.986;2023-04-22T02:51:15;97726.44;;;13.50;100.00
12879;BME280;20617;49.476;10.986;2023-04-22T02:53:20;97726.50;;;13.48;100.00
12879;BME280;20617;49.476;10.986;2023-04-22T02:55:25;97718.03;;;13.45;100.00
12879;BME280;20617;49.476;10.986;2023-04-22T02:57:30;97722.50;;;13.43;100.00
12879;BME280;20617;49.476;10.986;2023-04-22T02:59:35;97717.66;;;13.36;100.00
12879;BME280;20617;49.476;10.986;2023-04-22T03:01:42;97721.41;;;13.32;100.00
12879;BME280;20617;49.476;10.986;2023-04-22T03:03:58;97719.91;;;13.28;100.00
12879;BME280;20617;49.476;10.986;2023-04-22T03:06:06;97726.63;;;13.32;100.00
12879;BME280;20617;49.476;10.986;2023-04-22T03:08:11;97717.00;;;13.33;100.00
12879;BME280;20617;49.476;10.986;2023-04-22T03:10:16;97722.69;;;13.25;100.00
12879;BME280;20617;49.476;10.986;2023-04-22T03:12:21;97719.78;;;13.16;100.00
12879;BME280;20617;49.476;10.986;2023-04-22T03:14:26;97725.09;;;13.14;100.00
12879;BME280;20617;49.476;10.986;2023-04-22T03:16:32;97720.91;;;13.11;100.00
12879;BME280;20617;49.476;10.986;2023-04-22T03:18:39;97724.38;;;13.12;100.00
12879;BME280;20617;49.476;10.986;2023-04-22T03:20:45;97722.69;;;13.11;100.00
12879;BME280;20617;49.476;10.986;2023-04-22T03:22:54;97728.84;;;13.10;100.00
12879;BME280;20617;49.476;10.986;2023-04-22T03:25:00;97727.25;;;13.07;100.00
12879;BME280;20617;49.476;10.986;2023-04-22T03:27:06;97734.25;;;13.07;100.00
12879;BME280;20617;49.476;10.986;2023-04-22T03:29:13;97725.66;;;13.05;100.00
12879;BME280;20617;49.476;10.986;2023-04-22T03:31:18;97725.78;;;13.03;100.00
12879;BME280;20617;49.476;10.986;2023-04-22T03:33:25;97721.56;;;13.01;100.00
12879;BME280;20617;49.476;10.986;2023-04-22T03:35:37;97724.38;;;12.98;100.00
12879;BME280;20617;49.476;10.986;2023-04-22T03:37:42;97717.56;;;12.95;100.00
12879;BME280;20617;49.476;10.986;2023-04-22T03:39:54;97717.81;;;12.90;100.00
12879;BME280;20617;49.476;10.986;2023-04-22T03:42:01;97713.78;;;12.85;100.00
12879;BME280;20617;49.476;10.986;2023-04-22T03:44:08;97716.97;;;12.76;100.00
12879;BME280;20617;49.476;10.986;2023-04-22T03:46:15;97714.72;;;12.69;100.00
12879;BME280;20617;49.476;10.986;2023-04-22T03:48:29;97709.09;;;12.61;100.00
12879;BME280;20617;49.476;10.986;2023-04-22T03:50:41;97721.69;;;12.55;100.00
12879;BME280;20617;49.476;10.986;2023-04-22T03:52:47;97720.84;;;12.54;100.00
12879;BME280;20617;49.476;10.986;2023-04-22T03:54:57;97720.84;;;12.54;100.00
12879;BME280;20617;49.476;10.986;2023-04-22T03:57:03;97716.47;;;12.55;100.00
12879;BME280;20617;49.476;10.986;2023-04-22T03:59:08;97717.56;;;12.51;100.00
12879;BME280;20617;49.476;10.986;2023-04-22T04:01:13;97720.28;;;12.49;100.00
12879;BME280;20617;49.476;10.986;2023-04-22T04:03:23;97724.00;;;12.45;100.00
12879;BME280;20617;49.476;10.986;2023-04-22T04:05:32;97722.22;;;12.45;100.00
12879;BME280;20617;49.476;10.986;2023-04-22T04:07:37;97723.91;;;12.46;100.00
12879;BME280;20617;49.476;10.986;2023-04-22T04:09:43;97712.44;;;12.49;100.00
12879;BME280;20617;49.476;10.986;2023-04-22T04:11:51;97714.13;;;12.50;100.00
12879;BME280;20617;49.476;10.986;2023-04-22T04:13:58;97709.84;;;12.49;100.00
12879;BME280;20617;49.476;10.986;2023-04-22T04:16:20;97709.00;;;12.49;100.00
12879;BME280;20617;49.476;10.986;2023-04-22T04:18:31;97709.72;;;12.51;100.00
12879;BME280;20617;49.476;10.986;2023-04-22T04:20:36;97712.34;;;12.51;100.00
12879;BME280;20617;49.476;10.986;2023-04-22T04:22:42;97706.97;;;12.54;100.00
12879;BME280;20617;49.476;10.986;2023-04-22T04:24:48;97707.69;;;12.56;100.00
12879;BME280;20617;49.476;10.986;2023-04-22T04:26:58;97708.44;;;12.58;100.00
12879;BME280;20617;49.476;10.986;2023-04-22T04:29:11;97709.22;;;12.60;100.00
12879;BME280;20617;49.476;10.986;2023-04-22T04:31:22;97711.06;;;12.58;100.00
12879;BME280;20617;49.476;10.986;2023-04-22T04:33:31;97704.81;;;12.60;100.00
12879;BME280;20617;49.476;10.986;2023-04-22T04:35:38;97705.72;;;12.59;100.00
12879;BME280;20617;49.476;10.986;2023-04-22T04:37:47;97704.81;;;12.60;100.00
12879;BME280;20617;49.476;10.986;2023-04-22T04:39:52;97697.75;;;12.62;100.00
12879;BME280;20617;49.476;10.986;2023-04-22T04:42:13;97703.69;;;12.64;100.00
12879;BME280;20617;49.476;10.986;2023-04-22T04:44:26;97702.22;;;12.60;100.00
12879;BME280;20617;49.476;10.986;2023-04-22T04:46:36;97706.59;;;12.60;100.00
12879;BME280;20617;49.476;10.986;2023-04-22T04:48:44;97706.59;;;12.60;100.00
12879;BME280;20617;49.476;10.986;2023-04-22T04:50:54;97713.56;;;12.59;100.00
12879;BME280;20617;49.476;10.986;2023-04-22T04:53:02;97714.44;;;12.60;100.00
12879;BME280;20617;49.476;10.986;2023-04-22T04:55:12;97717.03;;;12.60;100.00
12879;BME280;20617;49.476;10.986;2023-04-22T04:57:20;97717.03;;;12.60;100.00
12879;BME280;20617;49.476;10.986;2023-04-22T04:59:25;97711.81;;;12.60;100.00
12879;BME280;20617;49.476;10.986;2023-04-22T05:01:32;97710.97;;;12.59;100.00
12879;BME280;20617;49.476;10.986;2023-04-22T05:03:41;97710.88;;;12.61;100.00
12879;BME280;20617;49.476;10.986;2023-04-22T05:05:49;97714.25;;;12.63;100.00
12879;BME280;20617;49.476;10.986;2023-04-22T05:07:54;97714.97;;;12.65;100.00
12879;BME280;20617;49.476;10.986;2023-04-22T05:10:00;97721.16;;;12.64;100.00
12879;BME280;20617;49.476;10.986;2023-04-22T05:12:07;97722.81;;;12.65;100.00
12879;BME280;20617;49.476;10.986;2023-04-22T05:14:14;97720.31;;;12.63;100.00
12879;BME280;20617;49.476;10.986;2023-04-22T05:16:20;97721.06;;;12.65;100.00
12879;BME280;20617;49.476;10.986;2023-04-22T05:18:26;97722.56;;;12.69;100.00
12879;BME280;20617;49.476;10.986;2023-04-22T05:20:37;97731.16;;;12.72;100.00
12879;BME280;20617;49.476;10.986;2023-04-22T05:22:42;97730.28;;;12.71;100.00
12879;BME280;20617;49.476;10.986;2023-04-22T05:24:48;97733.66;;;12.73;100.00
12879;BME280;20617;49.476;10.986;2023-04-22T05:26:54;97730.03;;;12.76;100.00
12879;BME280;20617;49.476;10.986;2023-04-22T05:28:59;97733.47;;;12.76;100.00
12879;BME280;20617;49.476;10.986;2023-04-22T05:31:06;97727.53;;;12.74;100.00
12879;BME280;20617;49.476;10.986;2023-04-22T05:33:12;97729.94;;;12.77;100.00
12879;BME280;20617;49.476;10.986;2023-04-22T05:35:17;97727.97;;;12.81;100.00
12879;BME280;20617;49.476;10.986;2023-04-22T05:37:22;97731.34;;;12.83;100.00
12879;BME280;20617;49.476;10.986;2023-04-22T05:39:27;97737.22;;;12.86;100.00
12879;BME280;20617;49.476;10.986;2023-04-22T05:41:35;97733.59;;;12.89;100.00
12879;BME280;20617;49.476;10.986;2023-04-22T05:43:46;97738.44;;;12.95;100.00
12879;BME280;20617;49.476;10.986;2023-04-22T05:45:53;97738.16;;;13.00;100.00
12879;BME280;20617;49.476;10.986;2023-04-22T05:48:01;97738.25;;;12.98;100.00
12879;BME280;20617;49.476;10.986;2023-04-22T05:50:11;97744.31;;;12.99;100.00
12879;BME280;20617;49.476;10.986;2023-04-22T05:52:23;97739.75;;;13.02;100.00
12879;BME280;20617;49.476;10.986;2023-04-22T05:54:40;97747.31;;;13.07;100.00
12879;BME280;20617;49.476;10.986;2023-04-22T05:56:46;97745.16;;;13.13;100.00
12879;BME280;20617;49.476;10.986;2023-04-22T05:58:51;97739.50;;;13.21;100.00
12879;BME280;20617;49.476;10.986;2023-04-22T06:00:58;97743.44;;;13.28;100.00
12879;BME280;20617;49.476;10.986;2023-04-22T06:03:24;97746.88;;;13.29;100.00
12879;BME280;20617;49.476;10.986;2023-04-22T06:05:30;97743.81;;;13.36;100.00
12879;BME280;20617;49.476;10.986;2023-04-22T06:07:35;97739.84;;;13.44;100.00
12879;BME280;20617;49.476;10.986;2023-04-22T06:09:40;97732.19;;;13.55;100.00
12879;BME280;20617;49.476;10.986;2023-04-22T06:11:45;97733.31;;;13.65;100.00
12879;BME280;20617;49.476;10.986;2023-04-22T06:13:50;97734.50;;;13.74;100.00
12879;BME280;20617;49.476;10.986;2023-04-22T06:15:55;97733.28;;;13.79;100.00
12879;BME280;20617;49.476;10.986;2023-04-22T06:18:01;97732.34;;;13.80;100.00
12879;BME280;20617;49.476;10.986;2023-04-22T06:20:09;97731.94;;;13.87;100.00
12879;BME280;20617;49.476;10.986;2023-04-22T06:22:14;97735.94;;;13.92;100.00
12879;BME280;20617;49.476;10.986;2023-04-22T06:24:21;97735.75;;;13.95;100.00
12879;BME280;20617;49.476;10.986;2023-04-22T06:26:28;97736.72;;;14.07;100.00
12879;BME280;20617;49.476;10.986;2023-04-22T06:28:33;97739.91;;;14.12;100.00
12879;BME280;20617;49.476;10.986;2023-04-22T06:30:44;97742.25;;;14.30;100.00
12879;BME280;20617;49.476;10.986;2023-04-22T06:32:50;97738.22;;;14.51;100.00
12879;BME280;20617;49.476;10.986;2023-04-22T06:34:56;97744.56;;;14.74;100.00
12879;BME280;20617;49.476;10.986;2023-04-22T06:37:03;97738.50;;;14.86;100.00
12879;BME280;20617;49.476;10.986;2023-04-22T06:39:08;97736.19;;;14.94;100.00
12879;BME280;20617;49.476;10.986;2023-04-22T06:41:37;97736.63;;;14.88;100.00
12879;BME280;20617;49.476;10.986;2023-04-22T06:44:13;97733.09;;;14.89;100.00
12879;BME280;20617;49.476;10.986;2023-04-22T06:46:44;97737.03;;;14.95;100.00
12879;BME280;20617;49.476;10.986;2023-04-22T06:49:08;97736.19;;;14.94;100.00
12879;BME280;20617;49.476;10.986;2023-04-22T06:51:31;97736.19;;;14.94;100.00
12879;BME280;20617;49.476;10.986;2023-04-22T06:53:39;97739.56;;;15.09;100.00
12879;BME280;20617;49.476;10.986;2023-04-22T06:55:48;97735.16;;;15.23;100.00
12879;BME280;20617;49.476;10.986;2023-04-22T06:57:54;97729.88;;;15.35;100.00
12879;BME280;20617;49.476;10.986;2023-04-22T07:00:00;97734.78;;;15.53;100.00
12879;BME280;20617;49.476;10.986;2023-04-22T07:02:07;97730.25;;;15.68;100.00
12879;BME280;20617;49.476;10.986;2023-04-22T07:04:13;97720.56;;;15.81;100.00
12879;BME280;20617;49.476;10.986;2023-04-22T07:06:18;97716.44;;;15.90;100.00
12879;BME280;20617;49.476;10.986;2023-04-22T07:08:23;97712.94;;;16.02;100.00
12879;BME280;20617;49.476;10.986;2023-04-22T07:10:31;97711.31;;;16.12;100.00
12879;BME280;20617;49.476;10.986;2023-04-22T07:12:54;97719.25;;;16.23;100.00
12879;BME280;20617;49.476;10.986;2023-04-22T07:14:59;97715.91;;;16.21;100.00
12879;BME280;20617;49.476;10.986;2023-04-22T07:17:04;97716.78;;;16.33;100.00
12879;BME280;20617;49.476;10.986;2023-04-22T07:19:11;97717.75;;;16.43;100.00
12879;BME280;20617;49.476;10.986;2023-04-22T07:21:16;97713.72;;;16.50;100.00
12879;BME280;20617;49.476;10.986;2023-04-22T07:23:21;97716.34;;;16.50;100.00
12879;BME280;20617;49.476;10.986;2023-04-22T07:25:26;97715.16;;;16.55;100.00
12879;BME280;20617;49.476;10.986;2023-04-22T07:27:34;97718.56;;;16.68;100.00
12879;BME280;20617;49.476;10.986;2023-04-22T07:29:39;97716.44;;;16.73;100.00
12879;BME280;20617;49.476;10.986;2023-04-22T07:31:44;97712.94;;;16.72;100.00
12879;BME280;20617;49.476;10.986;2023-04-22T07:33:49;97708.41;;;16.74;100.00
12879;BME280;20617;49.476;10.986;2023-04-22T07:35:54;97707.28;;;16.79;100.00
12879;BME280;20617;49.476;10.986;2023-04-22T07:37:59;97707.03;;;16.82;100.00
12879;BME280;20617;49.476;10.986;2023-04-22T07:40:05;97708.09;;;16.79;100.00
12879;BME280;20617;49.476;10.986;2023-04-22T07:42:12;97705.97;;;16.84;100.00
12879;BME280;20617;49.476;10.986;2023-04-22T07:44:20;97710.75;;;16.90;100.00
12879;BME280;20617;49.476;10.986;2023-04-22T07:46:25;97706.91;;;16.94;100.00
12879;BME280;20617;49.476;10.986;2023-04-22T07:48:30;97713.47;;;16.89;100.00
12879;BME280;20617;49.476;10.986;2023-04-22T07:50:35;97707.16;;;16.91;100.00
12879;BME280;20617;49.476;10.986;2023-04-22T07:52:40;97716.47;;;16.95;100.00
12879;BME280;20617;49.476;10.986;2023-04-22T07:54:45;97713.50;;;17.00;100.00
12879;BME280;20617;49.476;10.986;2023-04-22T07:56:49;97709.31;;;16.97;100.00
12879;BME280;20617;49.476;10.986;2023-04-22T07:58:54;97708.72;;;17.05;100.00
12879;BME280;20617;49.476;10.986;2023-04-22T08:01:04;97708.97;;;17.13;100.00
12879;BME280;20617;49.476;10.986;2023-04-22T08:03:10;97710.16;;;17.20;100.00
12879;BME280;20617;49.476;10.986;2023-04-22T08:05:15;97707.78;;;17.29;100.00
12879;BME280;20617;49.476;10.986;2023-04-22T08:07:20;97705.38;;;17.26;100.00
12879;BME280;20617;49.476;10.986;2023-04-22T08:09:28;97702.28;;;17.32;100.00
12879;BME280;20617;49.476;10.986;2023-04-22T08:11:33;97703.34;;;17.29;100.00
12879;BME280;20617;49.476;10.986;2023-04-22T08:13:38;97709.34;;;17.31;100.00
12879;BME280;20617;49.476;10.986;2023-04-22T08:15:45;97711.72;;;17.34;100.00
12879;BME280;20617;49.476;10.986;2023-04-22T08:17:53;97702.50;;;17.40;100.00
12879;BME280;20617;49.476;10.986;2023-04-22T08:19:58;97698.81;;;17.42;100.00
12879;BME280;20617;49.476;10.986;2023-04-22T08:22:03;97699.97;;;17.50;100.00
12879;BME280;20617;49.476;10.986;2023-04-22T08:24:08;97702.50;;;17.51;100.00
12879;BME280;20617;49.476;10.986;2023-04-22T08:26:13;97700.94;;;17.60;100.00
12879;BME280;20617;49.476;10.986;2023-04-22T08:28:18;97691.50;;;17.57;100.00
12879;BME280;20617;49.476;10.986;2023-04-22T08:30:23;97703.19;;;17.64;100.00
12879;BME280;20617;49.476;10.986;2023-04-22T08:32:28;97698.16;;;17.73;100.00
12879;BME280;20617;49.476;10.986;2023-04-22T08:34:36;97707.97;;;17.82;100.00
12879;BME280;20617;49.476;10.986;2023-04-22T08:36:42;97703.44;;;17.84;100.00
12879;BME280;20617;49.476;10.986;2023-04-22T08:38:47;97700.31;;;17.90;100.00
12879;BME280;20617;49.476;10.986;2023-04-22T08:40:55;97702.75;;;18.03;100.00
12879;BME280;20617;49.476;10.986;2023-04-22T08:43:00;97701.91;;;18.14;98.88
12879;BME280;20617;49.476;10.986;2023-04-22T08:45:06;97698.66;;;18.21;98.93
12879;BME280;20617;49.476;10.986;2023-04-22T08:47:12;97693.19;;;18.34;98.28
12879;BME280;20617;49.476;10.986;2023-04-22T08:49:18;97692.56;;;18.42;97.46
12879;BME280;20617;49.476;10.986;2023-04-22T08:51:26;97688.50;;;18.59;97.54
12879;BME280;20617;49.476;10.986;2023-04-22T08:53:33;97683.69;;;18.64;95.05
12879;BME280;20617;49.476;10.986;2023-04-22T08:55:37;97676.59;;;18.64;94.56
12879;BME280;20617;49.476;10.986;2023-04-22T08:57:44;97676.44;;;18.77;94.72
12879;BME280;20617;49.476;10.986;2023-04-22T08:59:50;97675.59;;;18.97;94.29
12879;BME280;20617;49.476;10.986;2023-04-22T09:01:59;97671.25;;;19.17;92.70
12879;BME280;20617;49.476;10.986;2023-04-22T09:04:08;97669.38;;;19.39;91.84
12879;BME280;20617;49.476;10.986;2023-04-22T09:06:15;97660.94;;;19.55;90.68
12879;BME280;20617;49.476;10.986;2023-04-22T09:08:24;97659.28;;;19.63;88.37
12879;BME280;20617;49.476;10.986;2023-04-22T09:10:30;97656.06;;;19.60;87.79
12879;BME280;20617;49.476;10.986;2023-04-22T09:12:36;97654.84;;;19.64;87.60
12879;BME280;20617;49.476;10.986;2023-04-22T09:14:42;97655.88;;;19.73;87.96
12879;BME280;20617;49.476;10.986;2023-04-22T09:16:48;97654.75;;;19.75;87.88
12879;BME280;20617;49.476;10.986;2023-04-22T09:18:53;97653.22;;;19.73;86.56
12879;BME280;20617;49.476;10.986;2023-04-22T09:20:59;97653.63;;;19.78;86.61
12879;BME280;20617;49.476;10.986;2023-04-22T09:23:03;97656.00;;;19.81;86.79
12879;BME280;20617;49.476;10.986;2023-04-22T09:25:17;97655.59;;;19.95;86.89
12879;BME280;20617;49.476;10.986;2023-04-22T09:27:23;97650.34;;;20.05;86.87
12879;BME280;20617;49.476;10.986;2023-04-22T09:29:29;97652.25;;;20.12;85.48
12879;BME280;20617;49.476;10.986;2023-04-22T09:31:34;97656.97;;;20.19;84.69
12879;BME280;20617;49.476;10.986;2023-04-22T09:33:39;97653.78;;;20.15;85.01
12879;BME280;20617;49.476;10.986;2023-04-22T09:35:45;97653.94;;;20.23;84.15
12879;BME280;20617;49.476;10.986;2023-04-22T09:37:50;97648.09;;;20.29;83.72
12879;BME280;20617;49.476;10.986;2023-04-22T09:39:55;97649.06;;;20.28;83.77
12879;BME280;20617;49.476;10.986;2023-04-22T09:42:03;97652.81;;;20.35;83.99
12879;BME280;20617;49.476;10.986;2023-04-22T09:44:10;97647.94;;;20.41;83.54
12879;BME280;20617;49.476;10.986;2023-04-22T09:46:17;97641.66;;;20.51;83.07
12879;BME280;20617;49.476;10.986;2023-04-22T09:48:22;97646.25;;;20.59;83.40
12879;BME280;20617;49.476;10.986;2023-04-22T09:50:29;97640.53;;;20.73;82.76
12879;BME280;20617;49.476;10.986;2023-04-22T09:52:43;97633.69;;;20.80;81.84
12879;BME280;20617;49.476;10.986;2023-04-22T09:54:48;97642.16;;;20.84;80.81
12879;BME280;20617;49.476;10.986;2023-04-22T09:56:54;97638.91;;;21.00;80.68
12879;BME280;20617;49.476;10.986;2023-04-22T09:59:02;97633.13;;;21.14;79.48
12879;BME280;20617;49.476;10.986;2023-04-22T10:01:10;97621.69;;;21.23;77.30
12879;BME280;20617;49.476;10.986;2023-04-22T10:03:14;97618.94;;;21.15;75.47
12879;BME280;20617;49.476;10.986;2023-04-22T10:05:20;97623.66;;;21.12;74.58
12879;BME280;20617;49.476;10.986;2023-04-22T10:07:27;97618.34;;;21.21;73.39
12879;BME280;20617;49.476;10.986;2023-04-22T10:09:33;97621.28;;;21.18;71.75
12879;BME280;20617;49.476;10.986;2023-04-22T10:11:39;97612.84;;;21.33;69.71
12879;BME280;20617;49.476;10.986;2023-04-22T10:13:44;97618.16;;;21.33;65.92
12879;BME280;20617;49.476;10.986;2023-04-22T10:15:52;97622.44;;;21.34;64.60
12879;BME280;20617;49.476;10.986;2023-04-22T10:17:59;97612.81;;;21.42;64.48
12879;BME280;20617;49.476;10.986;2023-04-22T10:20:08;97615.25;;;21.54;62.99
12879;BME280;20617;49.476;10.986;2023-04-22T10:22:17;97613.97;;;21.58;59.62
12879;BME280;20617;49.476;10.986;2023-04-22T10:24:25;97609.38;;;21.60;56.08
12879;BME280;20617;49.476;10.986;2023-04-22T10:26:41;97607.09;;;21.65;56.79
12879;BME280;20617;49.476;10.986;2023-04-22T10:28:46;97607.25;;;21.63;54.78
12879;BME280;20617;49.476;10.986;2023-04-22T10:30:53;97604.84;;;21.70;54.89
12879;BME280;20617;49.476;10.986;2023-04-22T10:36:09;97598.25;;;21.74;53.42
12879;BME280;20617;49.476;10.986;2023-04-22T10:38:15;97599.09;;;21.75;53.69
12879;BME280;20617;49.476;10.986;2023-04-22T10:40:20;97591.00;;;21.76;53.75
12879;BME280;20617;49.476;10.986;2023-04-22T10:42:27;97593.34;;;21.79;53.56
12879;BME280;20617;49.476;10.986;2023-04-22T10:44:48;97588.34;;;21.94;53.05
12879;BME280;20617;49.476;10.986;2023-04-22T10:46:59;97588.41;;;22.02;53.42
12879;BME280;20617;49.476;10.986;2023-04-22T10:49:06;97588.63;;;22.09;54.28
12879;BME280;20617;49.476;10.986;2023-04-22T10:51:37;97581.19;;;22.12;53.66
12879;BME280;20617;49.476;10.986;2023-04-22T10:53:44;97571.81;;;22.18;49.85
12879;BME280;20617;49.476;10.986;2023-04-22T10:55:50;97571.97;;;22.17;47.43
12879;BME280;20617;49.476;10.986;2023-04-22T10:57:58;97570.28;;;22.15;49.13
12879;BME280;20617;49.476;10.986;2023-04-22T11:00:25;97564.56;;;22.20;50.03
12879;BME280;20617;49.476;10.986;2023-04-22T11:02:46;97577.72;;;22.30;49.05